Time;durP1;ratioP1;P1;durP2;ratioP2;P2;SDS_P1;SDS_P2;PMS_P1;PMS_P2;Temp;Humidity;BMP_temperature;BMP_pressure;BME280_temperature;BME280_humidity;BME280_pressure;Samples;Min_cycle;Max_cycle;Signal;HPM_P1;HPM_P2
2022/08/24 00:01:54;;;;;;;;;;;;;;;20.27;100.00;101720.00;2614609;36;19951;-54
2022/08/24 00:04:22;;;;;;;;;;;;;;;20.24;100.00;101717.63;2614326;36;19973;-52
2022/08/24 00:06:51;;;;;;;;;;;;;;;20.22;100.00;101716.94;2614141;31;19951;-55
2022/08/24 00:09:19;;;;;;;;;;;;;;;20.21;100.00;101720.69;2615515;36;19946;-55
2022/08/24 00:11:47;;;;;;;;;;;;;;;20.11;100.00;101720.06;2614229;36;19957;-53
2022/08/24 00:14:18;;;;;;;;;;;;;;;20.07;100.00;101718.72;2614938;36;19946;-54
2022/08/24 00:16:46;;;;;;;;;;;;;;;20.02;100.00;101727.44;2613942;36;20331;-55
2022/08/24 00:19:15;;;;;;;;;;;;;;;20.07;100.00;101724.19;2614644;36;19998;-54
2022/08/24 00:21:43;;;;;;;;;;;;;;;20.08;100.00;101723.16;2615585;36;20328;-56
2022/08/24 00:24:11;;;;;;;;;;;;;;;20.04;100.00;101724.56;2614894;36;19951;-55
2022/08/24 00:26:39;;;;;;;;;;;;;;;19.99;100.00;101721.50;2614139;36;19973;-55
2022/08/24 00:29:10;;;;;;;;;;;;;;;19.92;100.00;101722.22;2615517;47;19978;-56
2022/08/24 00:31:40;;;;;;;;;;;;;;;19.93;100.00;101718.47;2611724;31;20568;-54
2022/08/24 00:34:09;;;;;;;;;;;;;;;19.99;100.00;101724.22;2610253;36;19946;-52
2022/08/24 00:36:37;;;;;;;;;;;;;;;19.98;100.00;101717.03;2611557;36;19957;-53
2022/08/24 00:39:06;;;;;;;;;;;;;;;19.85;100.00;101720.38;2611576;36;20352;-54
2022/08/24 00:41:38;;;;;;;;;;;;;;;19.78;100.00;101720.19;2612492;36;19951;-54
2022/08/24 00:44:06;;;;;;;;;;;;;;;19.78;100.00;101715.59;2610672;31;20425;-52
2022/08/24 00:46:39;;;;;;;;;;;;;;;19.80;100.00;101717.28;2611166;31;20425;-55
2022/08/24 00:49:12;;;;;;;;;;;;;;;19.75;100.00;101715.06;2610988;36;20034;-53
2022/08/24 00:51:41;;;;;;;;;;;;;;;19.76;100.00;101722.25;2612515;36;20359;-53
2022/08/24 00:54:12;;;;;;;;;;;;;;;19.76;100.00;101722.25;2610920;36;19947;-54
2022/08/24 00:56:43;;;;;;;;;;;;;;;19.74;100.00;101724.28;2611405;36;20570;-54
2022/08/24 00:59:13;;;;;;;;;;;;;;;19.68;100.00;101722.25;2601538;36;20082;-55
2022/08/24 01:01:42;;;;;;;;;;;;;;;19.64;100.00;101720.88;2610662;36;19947;-54
2022/08/24 01:04:16;;;;;;;;;;;;;;;19.64;100.00;101721.75;2613334;31;19957;-52
2022/08/24 01:06:44;;;;;;;;;;;;;;;19.49;100.00;101716.16;2613218;36;19951;-55
2022/08/24 01:09:12;;;;;;;;;;;;;;;19.48;100.00;101714.47;2614058;36;21101;-54
2022/08/24 01:11:40;;;;;;;;;;;;;;;19.47;100.00;101712.75;2613897;36;19951;-58
2022/08/24 01:14:09;;;;;;;;;;;;;;;19.47;100.00;101712.75;2613315;36;20432;-50
2022/08/24 01:19:29;;;;;;;;;;;;;;;19.43;100.00;101714.13;2613549;36;19962;-54
2022/08/24 01:22:00;;;;;;;;;;;;;;;19.44;100.00;101721.28;2612803;36;19958;-54
2022/08/24 01:24:31;;;;;;;;;;;;;;;19.40;100.00;101711.75;2611903;31;20492;-56
2022/08/24 01:26:59;;;;;;;;;;;;;;;19.38;100.00;101719.25;2611708;36;20044;-53
2022/08/24 01:29:30;;;;;;;;;;;;;;;19.40;100.00;101712.63;2611193;36;19985;-54
2022/08/24 01:31:58;;;;;;;;;;;;;;;19.42;100.00;101720.63;2610682;36;20258;-55
2022/08/24 01:34:27;;;;;;;;;;;;;;;19.34;100.00;101706.97;2611984;36;19938;-54
2022/08/24 01:36:59;;;;;;;;;;;;;;;19.40;100.00;101712.63;2611070;36;19950;-56
2022/08/24 01:39:28;;;;;;;;;;;;;;;19.32;100.00;101709.88;2612080;36;19966;-56
2022/08/24 01:41:59;;;;;;;;;;;;;;;19.25;100.00;101712.44;2612319;31;20363;-55
2022/08/24 01:44:29;;;;;;;;;;;;;;;19.34;100.00;101712.44;2612234;36;19942;-55
2022/08/24 01:46:58;;;;;;;;;;;;;;;19.35;100.00;101720.44;2611549;36;19950;-53
2022/08/24 01:49:27;;;;;;;;;;;;;;;19.30;100.00;101717.41;2611287;36;19962;-55
2022/08/24 01:51:56;;;;;;;;;;;;;;;19.31;100.00;101718.25;2612216;36;20386;-54
2022/08/24 01:54:24;;;;;;;;;;;;;;;19.32;100.00;101715.34;2614293;36;20523;-55
2022/08/24 01:56:52;;;;;;;;;;;;;;;19.33;100.00;101722.50;2613360;36;19958;-54
2022/08/24 01:59:24;;;;;;;;;;;;;;;19.35;100.00;101722.34;2612562;36;20499;-55
2022/08/24 02:01:55;;;;;;;;;;;;;;;19.34;100.00;101723.34;2614137;36;20375;-55
2022/08/24 02:04:23;;;;;;;;;;;;;;;19.24;100.00;101713.47;2614765;36;20329;-53
2022/08/24 02:06:52;;;;;;;;;;;;;;;19.23;100.00;101722.69;2612675;36;20451;-55
2022/08/24 02:09:20;;;;;;;;;;;;;;;19.19;100.00;101720.47;2613793;36;20521;-55
2022/08/24 02:11:49;;;;;;;;;;;;;;;19.17;100.00;101717.91;2614520;36;19946;-54
2022/08/24 02:14:18;;;;;;;;;;;;;;;19.12;100.00;101716.72;2612913;31;19953;-54
2022/08/24 02:16:49;;;;;;;;;;;;;;;19.11;100.00;101717.75;2613879;36;20464;-51
2022/08/24 02:19:17;;;;;;;;;;;;;;;19.12;100.00;101725.75;2613595;36;19979;-51
2022/08/24 02:21:45;;;;;;;;;;;;;;;19.11;100.00;101721.34;2612852;36;19955;-53
2022/08/24 02:24:13;;;;;;;;;;;;;;;19.10;100.00;101732.44;2614393;36;20002;-57
2022/08/24 02:26:41;;;;;;;;;;;;;;;19.15;100.00;101725.41;2611650;36;19958;-57
2022/08/24 02:29:09;;;;;;;;;;;;;;;19.13;100.00;101729.34;2611732;36;19950;-53
2022/08/24 02:31:37;;;;;;;;;;;;;;;19.11;100.00;101729.53;2612171;36;20013;-53
2022/08/24 02:34:11;;;;;;;;;;;;;;;19.10;100.00;101735.16;2613315;36;20045;-53
2022/08/24 02:36:40;;;;;;;;;;;;;;;19.05;100.00;101732.91;2611434;36;20375;-54
2022/08/24 02:39:09;;;;;;;;;;;;;;;18.94;100.00;101727.81;2611741;31;19974;-55
2022/08/24 02:41:37;;;;;;;;;;;;;;;18.90;100.00;101725.44;2611322;36;19955;-53
2022/08/24 02:44:05;;;;;;;;;;;;;;;18.83;100.00;101723.50;2611648;36;20254;-59
2022/08/24 02:46:34;;;;;;;;;;;;;;;18.96;100.00;101731.22;2611911;31;19950;-52
2022/08/24 02:49:02;;;;;;;;;;;;;;;18.98;100.00;101723.75;2611654;36;19946;-52
2022/08/24 02:51:33;;;;;;;;;;;;;;;19.02;100.00;101725.06;2614493;36;19951;-53
2022/08/24 02:54:04;;;;;;;;;;;;;;;18.99;100.00;101725.41;2614485;31;19995;-52
2022/08/24 02:56:33;;;;;;;;;;;;;;;18.99;100.00;101728.16;2613821;36;19983;-55
2022/08/24 02:59:01;;;;;;;;;;;;;;;18.99;100.00;101726.28;2614191;36;20057;-51
2022/08/24 03:01:30;;;;;;;;;;;;;;;18.99;100.00;101730.88;2612636;36;20375;-54
2022/08/24 03:03:58;;;;;;;;;;;;;;;19.04;100.00;101731.22;2614704;36;19954;-55
2022/08/24 03:06:27;;;;;;;;;;;;;;;18.99;100.00;101733.59;2613442;36;19951;-52
2022/08/24 03:08:57;;;;;;;;;;;;;;;18.93;100.00;101729.69;2612376;36;19951;-54
2022/08/24 03:11:26;;;;;;;;;;;;;;;18.95;100.00;101734.97;2614569;31;19974;-52
2022/08/24 03:13:54;;;;;;;;;;;;;;;18.93;100.00;101737.84;2613100;36;19956;-56
2022/08/24 03:16:22;;;;;;;;;;;;;;;18.73;100.00;101732.72;2613702;36;19969;-54
2022/08/24 03:18:50;;;;;;;;;;;;;;;18.71;100.00;101737.50;2614267;36;20355;-53
2022/08/24 03:21:19;;;;;;;;;;;;;;;18.74;100.00;101739.00;2613565;36;19981;-51
2022/08/24 03:23:47;;;;;;;;;;;;;;;18.75;100.00;101735.25;2611826;36;20424;-55
2022/08/24 03:26:17;;;;;;;;;;;;;;;18.81;100.00;101729.13;2614621;36;19946;-53
2022/08/24 03:28:46;;;;;;;;;;;;;;;18.77;100.00;101733.25;2614037;36;19950;-55
2022/08/24 03:31:14;;;;;;;;;;;;;;;18.83;100.00;101732.56;2614078;36;19951;-58
2022/08/24 03:33:42;;;;;;;;;;;;;;;18.79;100.00;101731.19;2614480;31;19962;-51
2022/08/24 03:36:10;;;;;;;;;;;;;;;18.80;100.00;101730.16;2613760;36;19958;-50
2022/08/24 03:38:38;;;;;;;;;;;;;;;18.79;100.00;101738.53;2613943;36;19950;-55
2022/08/24 03:41:06;;;;;;;;;;;;;;;18.73;100.00;101731.88;2615039;31;20377;-52
2022/08/24 03:43:50;;;;;;;;;;;;;;;18.70;100.00;101734.94;2613207;36;19946;-59
2022/08/24 03:46:19;;;;;;;;;;;;;;;18.69;100.00;101734.06;2613858;36;20409;-52
2022/08/24 03:48:48;;;;;;;;;;;;;;;18.70;100.00;101724.03;2614320;36;19943;-55
2022/08/24 03:51:17;;;;;;;;;;;;;;;18.65;100.00;101731.84;2613037;36;19954;-55
2022/08/24 03:53:45;;;;;;;;;;;;;;;18.64;100.00;101732.84;2611548;36;19997;-53
2022/08/24 03:56:13;;;;;;;;;;;;;;;18.65;100.00;101738.13;2614440;31;19973;-54
2022/08/24 03:58:44;;;;;;;;;;;;;;;18.64;100.00;101727.41;2614653;36;20009;-55
2022/08/24 04:01:12;;;;;;;;;;;;;;;18.62;100.00;101735.75;2613732;36;19957;-55
2022/08/24 04:03:42;;;;;;;;;;;;;;;18.60;100.00;101736.97;2613611;36;19972;-54
2022/08/24 04:06:11;;;;;;;;;;;;;;;18.53;100.00;101743.06;2613036;36;20356;-54
2022/08/24 04:08:39;;;;;;;;;;;;;;;18.45;100.00;101751.25;2611656;36;19955;-56
2022/08/24 04:11:10;;;;;;;;;;;;;;;18.44;100.00;101751.41;2614860;36;20475;-52
2022/08/24 04:13:39;;;;;;;;;;;;;;;18.35;100.00;101750.53;2613806;36;19982;-56
2022/08/24 04:16:11;;;;;;;;;;;;;;;18.33;100.00;101747.97;2613892;31;19947;-55
2022/08/24 04:18:39;;;;;;;;;;;;;;;18.41;100.00;101759.91;2613517;36;20442;-53
2022/08/24 04:21:08;;;;;;;;;;;;;;;18.28;100.00;101749.47;2613692;31;19957;-55
2022/08/24 04:23:36;;;;;;;;;;;;;;;18.31;100.00;101754.59;2613444;36;19969;-54
2022/08/24 04:26:05;;;;;;;;;;;;;;;18.31;100.00;101760.03;2613776;31;19973;-54
2022/08/24 04:28:33;;;;;;;;;;;;;;;18.30;100.00;101758.31;2611547;36;19973;-56
2022/08/24 04:31:01;;;;;;;;;;;;;;;18.30;100.00;101767.38;2612178;36;19950;-52
2022/08/24 04:33:33;;;;;;;;;;;;;;;18.30;100.00;101763.78;2612575;36;20454;-51
2022/08/24 04:36:01;;;;;;;;;;;;;;;18.30;100.00;101767.38;2613236;36;19954;-54
2022/08/24 04:38:30;;;;;;;;;;;;;;;18.31;100.00;101765.50;2613511;36;21626;-54
2022/08/24 04:40:58;;;;;;;;;;;;;;;18.31;100.00;101760.03;2612155;36;20561;-54
2022/08/24 04:43:26;;;;;;;;;;;;;;;18.32;100.00;101767.22;2612139;36;19982;-55
2022/08/24 04:45:54;;;;;;;;;;;;;;;18.31;100.00;101762.78;2612266;36;19951;-54
2022/08/24 04:48:22;;;;;;;;;;;;;;;18.29;100.00;101767.53;2612701;36;19997;-52
2022/08/24 04:50:53;;;;;;;;;;;;;;;18.29;100.00;101762.94;2612548;36;20622;-53
2022/08/24 04:53:21;;;;;;;;;;;;;;;18.31;100.00;101769.06;2613904;36;19950;-54
2022/08/24 04:55:50;;;;;;;;;;;;;;;18.28;100.00;101771.28;2613468;36;19966;-56
2022/08/24 04:58:19;;;;;;;;;;;;;;;18.31;100.00;101773.66;2614776;36;19951;-56
2022/08/24 05:00:47;;;;;;;;;;;;;;;18.30;100.00;101778.28;2612375;36;19989;-57
2022/08/24 05:03:15;;;;;;;;;;;;;;;18.33;100.00;101775.22;2612734;36;19954;-54
2022/08/24 05:05:45;;;;;;;;;;;;;;;18.35;100.00;101775.06;2615424;36;20363;-53
2022/08/24 05:08:17;;;;;;;;;;;;;;;18.42;100.00;101772.50;2613758;31;20317;-54
2022/08/24 05:10:46;;;;;;;;;;;;;;;18.42;100.00;101770.66;2614337;36;19953;-54
2022/08/24 05:13:14;;;;;;;;;;;;;;;18.42;100.00;101773.38;2613716;36;20450;-56
2022/08/24 05:15:43;;;;;;;;;;;;;;;18.41;100.00;101777.13;2614795;36;20036;-54
2022/08/24 05:18:12;;;;;;;;;;;;;;;18.45;100.00;101783.94;2615194;31;20424;-56
2022/08/24 05:20:41;;;;;;;;;;;;;;;18.46;100.00;101785.66;2613585;36;21862;-56
2022/08/24 05:23:10;;;;;;;;;;;;;;;18.53;100.00;101788.56;2615079;36;20359;-54
2022/08/24 05:25:41;;;;;;;;;;;;;;;18.52;100.00;101787.72;2614745;31;20005;-56
2022/08/24 05:28:09;;;;;;;;;;;;;;;18.53;100.00;101794.84;2613655;36;19950;-55
2022/08/24 05:30:37;;;;;;;;;;;;;;;18.56;100.00;101790.97;2614053;36;19954;-53
2022/08/24 05:33:06;;;;;;;;;;;;;;;18.64;100.00;101795.56;2613686;36;19955;-57
2022/08/24 05:35:38;;;;;;;;;;;;;;;18.67;100.00;101792.53;2614437;36;20014;-59
2022/08/24 05:38:06;;;;;;;;;;;;;;;18.73;100.00;101795.44;2613509;36;19955;-55
2022/08/24 05:40:34;;;;;;;;;;;;;;;18.80;100.00;101795.63;2614780;36;19958;-54
2022/08/24 05:43:05;;;;;;;;;;;;;;;18.84;100.00;101790.69;2613429;36;19939;-55
2022/08/24 05:45:33;;;;;;;;;;;;;;;18.90;100.00;101793.63;2613755;36;19981;-52
2022/08/24 05:48:01;;;;;;;;;;;;;;;18.96;100.00;101794.81;2614328;36;20332;-55
2022/08/24 05:50:29;;;;;;;;;;;;;;;18.99;100.00;101793.63;2614495;31;19954;-56
2022/08/24 05:52:57;;;;;;;;;;;;;;;19.04;100.00;101791.25;2614601;36;19981;-58
2022/08/24 05:55:25;;;;;;;;;;;;;;;19.10;100.00;101787.84;2615041;36;19950;-56
2022/08/24 05:57:53;;;;;;;;;;;;;;;19.16;100.00;101791.78;2614308;36;21408;-54
2022/08/24 06:00:24;;;;;;;;;;;;;;;19.25;100.00;101785.28;2613705;31;20450;-55
2022/08/24 06:02:54;;;;;;;;;;;;;;;19.31;100.00;101789.22;2613632;36;19961;-55
2022/08/24 06:05:22;;;;;;;;;;;;;;;19.38;100.00;101801.16;2615068;36;19951;-55
2022/08/24 06:07:50;;;;;;;;;;;;;;;19.46;100.00;101797.56;2613899;31;20411;-55
2022/08/24 06:10:19;;;;;;;;;;;;;;;19.48;100.00;101800.97;2611379;36;19955;-55
2022/08/24 06:12:47;;;;;;;;;;;;;;;19.55;100.00;101785.59;2612612;36;19954;-56
2022/08/24 06:15:15;;;;;;;;;;;;;;;19.65;100.00;101790.88;2612610;36;20578;-55
2022/08/24 06:17:46;;;;;;;;;;;;;;;19.73;100.00;101796.34;2612256;36;19969;-54
2022/08/24 06:20:14;;;;;;;;;;;;;;;19.82;100.00;101798.06;2614406;36;19974;-52
2022/08/24 06:22:44;;;;;;;;;;;;;;;19.86;100.00;101798.53;2614128;36;20444;-57
2022/08/24 06:27:52;;;;;;;;;;;;;;;20.04;100.00;101801.06;2614249;36;20046;-55
2022/08/24 06:30:20;;;;;;;;;;;;;;;20.07;100.00;101800.72;2613018;36;19985;-53
2022/08/24 06:32:51;;;;;;;;;;;;;;;20.14;100.00;101804.47;2614344;36;19946;-55
2022/08/24 06:35:19;;;;;;;;;;;;;;;20.21;100.00;101808.16;2613252;36;19954;-55
2022/08/24 06:37:47;;;;;;;;;;;;;;;20.40;100.00;101806.03;2611772;36;20356;-56
2022/08/24 06:40:15;;;;;;;;;;;;;;;20.50;100.00;101801.22;2613201;36;19985;-57
2022/08/24 06:42:43;;;;;;;;;;;;;;;20.71;100.00;101802.50;2611282;36;19947;-57
2022/08/24 06:45:12;;;;;;;;;;;;;;;21.01;100.00;101798.03;2613282;31;19950;-56
2022/08/24 06:47:40;;;;;;;;;;;;;;;21.29;100.00;101794.69;2611319;36;19993;-57
2022/08/24 06:50:11;;;;;;;;;;;;;;;21.56;100.00;101801.53;2612265;36;19985;-56
2022/08/24 06:52:40;;;;;;;;;;;;;;;21.77;100.00;101797.19;2611795;36;19951;-54
2022/08/24 06:55:08;;;;;;;;;;;;;;;22.03;100.00;101799.50;2611398;36;20424;-54
2022/08/24 06:57:36;;;;;;;;;;;;;;;22.15;100.00;101794.38;2610853;36;19954;-56
2022/08/24 07:00:07;;;;;;;;;;;;;;;22.43;100.00;101797.28;2611339;36;19950;-55
2022/08/24 07:02:35;;;;;;;;;;;;;;;22.61;100.00;101799.63;2611271;31;20041;-53
2022/08/24 07:05:03;;;;;;;;;;;;;;;22.85;100.00;101801.16;2603340;36;19954;-54
2022/08/24 07:07:34;;;;;;;;;;;;;;;22.92;100.00;101804.84;2612015;36;19950;-56
2022/08/24 07:10:02;;;;;;;;;;;;;;;23.08;100.00;101798.22;2612966;36;19951;-54
2022/08/24 07:12:31;;;;;;;;;;;;;;;23.36;100.00;101802.09;2613846;36;19989;-55
2022/08/24 07:14:59;;;;;;;;;;;;;;;23.18;100.00;101797.09;2614139;36;20055;-53
2022/08/24 07:17:27;;;;;;;;;;;;;;;23.26;100.00;101802.41;2614241;36;19954;-54
2022/08/24 07:19:55;;;;;;;;;;;;;;;23.72;100.00;101804.72;2614030;36;20328;-55
2022/08/24 07:22:23;;;;;;;;;;;;;;;24.02;100.00;101796.25;2611116;36;19958;-53
2022/08/24 07:24:53;;;;;;;;;;;;;;;24.27;100.00;101804.84;2610904;36;19985;-54
2022/08/24 07:27:22;;;;;;;;;;;;;;;24.35;100.00;101801.09;2610718;36;19950;-56
2022/08/24 07:29:50;;;;;;;;;;;;;;;24.52;100.00;101804.31;2611000;36;20042;-56
2022/08/24 07:32:18;;;;;;;;;;;;;;;24.10;100.00;101797.97;2609642;36;20372;-55
2022/08/24 07:34:46;;;;;;;;;;;;;;;24.19;100.00;101796.78;2609899;36;19954;-54
2022/08/24 07:37:14;;;;;;;;;;;;;;;24.38;100.00;101803.44;2611337;36;19974;-53
2022/08/24 07:39:42;;;;;;;;;;;;;;;24.20;100.00;101800.38;2611813;36;20444;-55
2022/08/24 07:42:13;;;;;;;;;;;;;;;24.51;100.00;101804.53;2611013;36;19953;-53
2022/08/24 07:44:41;;;;;;;;;;;;;;;24.97;100.00;101801.94;2611116;36;19962;-55
2022/08/24 07:47:09;;;;;;;;;;;;;;;25.00;100.00;101801.50;2610191;36;19958;-54
2022/08/24 07:49:37;;;;;;;;;;;;;;;25.03;100.00;101805.75;2611331;36;19981;-55
2022/08/24 07:52:05;;;;;;;;;;;;;;;25.24;100.00;101809.38;2610513;36;19957;-56
2022/08/24 07:54:34;;;;;;;;;;;;;;;25.41;100.00;101810.69;2611482;36;19954;-54
2022/08/24 07:57:05;;;;;;;;;;;;;;;25.45;100.00;101800.91;2611353;36;19951;-54
2022/08/24 07:59:36;;;;;;;;;;;;;;;25.36;100.00;101805.78;2610896;36;20624;-56
2022/08/24 08:02:04;;;;;;;;;;;;;;;25.64;100.00;101803.88;2609736;31;19982;-54
2022/08/24 08:04:32;;;;;;;;;;;;;;;25.65;100.00;101803.69;2607057;31;19951;-53
2022/08/24 08:07:01;;;;;;;;;;;;;;;25.43;100.00;101810.47;2613892;36;19993;-53
2022/08/24 08:09:29;;;;;;;;;;;;;;;25.42;100.00;101811.53;2607220;36;19950;-53
2022/08/24 08:11:58;;;;;;;;;;;;;;;25.81;100.00;101807.91;2613988;36;19994;-52
2022/08/24 08:14:26;;;;;;;;;;;;;;;25.75;100.00;101814.28;2615014;36;19954;-54
2022/08/24 08:16:58;;;;;;;;;;;;;;;25.83;100.00;101804.94;2613639;36;19942;-55
2022/08/24 08:19:29;;;;;;;;;;;;;;;25.61;100.00;101818.09;2612546;36;19951;-54
2022/08/24 08:24:39;;;;;;;;;;;;;;;26.28;100.00;101815.22;2611901;36;20234;-56
2022/08/24 08:27:07;;;;;;;;;;;;;;;26.33;100.00;101812.66;2610225;36;20035;-55
2022/08/24 08:29:38;;;;;;;;;;;;;;;26.02;100.00;101815.09;2610787;31;20386;-52
2022/08/24 08:32:10;;;;;;;;;;;;;;;26.72;100.00;101814.44;2610721;36;19953;-54
2022/08/24 08:34:38;;;;;;;;;;;;;;;26.94;100.00;101819.59;2610779;31;19954;-56
2022/08/24 08:37:07;;;;;;;;;;;;;;;26.74;100.00;101819.72;2610517;36;19958;-50
2022/08/24 08:39:35;;;;;;;;;;;;;;;26.42;100.00;101825.16;2610877;36;20048;-54
2022/08/24 08:42:13;;;;;;;;;;;;;;;26.27;100.00;101830.94;2611444;36;20336;-55
2022/08/24 08:44:51;;;;;;;;;;;;;;;26.52;100.00;101825.53;2610718;36;19951;-49
2022/08/24 08:47:36;;;;;;;;;;;;;;;27.02;100.00;101824.88;2608521;36;19954;-56
2022/08/24 08:50:08;;;;;;;;;;;;;;;27.03;100.00;101825.69;2612004;31;19957;-54
2022/08/24 08:53:00;;;;;;;;;;;;;;;27.26;100.00;101830.66;2612679;36;19946;-54
2022/08/24 08:55:30;;;;;;;;;;;;;;;26.70;100.00;101835.88;2611114;36;19954;-54
2022/08/24 08:58:03;;;;;;;;;;;;;;;26.93;100.00;101835.34;2610165;36;20066;-53
2022/08/24 09:00:42;;;;;;;;;;;;;;;26.89;100.00;101834.06;2610232;36;19955;-54
2022/08/24 09:03:20;;;;;;;;;;;;;;;27.10;100.00;101827.38;2613098;36;19950;-54
2022/08/24 09:06:06;;;;;;;;;;;;;;;27.22;100.00;101827.50;2611608;36;19954;-54
2022/08/24 09:08:41;;;;;;;;;;;;;;;27.31;100.00;101829.97;2606535;36;20341;-50
2022/08/24 09:11:17;;;;;;;;;;;;;;;27.61;100.00;101817.19;2613959;36;20550;-54
2022/08/24 09:14:12;;;;;;;;;;;;;;;27.61;100.00;101825.47;2607625;36;19981;-53
2022/08/24 09:16:54;;;;;;;;;;;;;;;27.49;100.00;101824.53;2619331;31;20468;-52
2022/08/24 09:19:35;;;;;;;;;;;;;;;27.87;100.00;101826.31;2612418;36;19962;-55
2022/08/24 09:22:12;;;;;;;;;;;;;;;27.44;100.00;101832.66;2612834;36;19958;-53
2022/08/24 09:24:45;;;;;;;;;;;;;;;27.22;100.00;101827.50;2614130;36;20364;-52
2022/08/24 09:27:19;;;;;;;;;;;;;;;27.41;100.00;101833.97;2614654;36;19970;-54
2022/08/24 09:29:53;;;;;;;;;;;;;;;27.73;100.00;101827.50;2615031;31;20439;-55
2022/08/24 09:32:31;;;;;;;;;;;;;;;28.04;100.00;101823.81;2613776;36;20436;-54
2022/08/24 09:35:02;;;;;;;;;;;;;;;27.93;100.00;101822.63;2615029;36;19939;-55
2022/08/24 09:37:33;;;;;;;;;;;;;;;27.98;100.00;101827.50;2614106;36;19954;-54
2022/08/24 09:40:03;;;;;;;;;;;;;;;27.76;100.00;101827.06;2615176;31;19993;-54
2022/08/24 09:42:43;;;;;;;;;;;;;;;28.01;100.00;101824.28;2614344;36;19958;-54
2022/08/24 09:45:20;;;;;;;;;;;;;;;28.25;100.00;101819.75;2614267;36;19954;-54
2022/08/24 09:48:05;;;;;;;;;;;;;;;27.83;100.00;101821.44;2612925;36;19955;-52
2022/08/24 09:50:45;;;;;;;;;;;;;;;28.11;100.00;101829.28;2614639;31;20284;-52
2022/08/24 09:53:32;;;;;;;;;;;;;;;28.16;100.00;101829.44;2613025;36;19957;-55
2022/08/24 09:56:11;;;;;;;;;;;;;;;28.14;100.00;101826.06;2611356;36;19954;-53
2022/08/24 09:58:53;;;;;;;;;;;;;;;28.58;100.00;101815.72;2612585;36;19954;-54
2022/08/24 10:01:24;;;;;;;;;;;;;;;28.79;100.00;101819.09;2610761;31;19973;-52
2022/08/24 10:04:01;;;;;;;;;;;;;;;28.58;100.00;101818.47;2609696;36;19951;-54
2022/08/24 10:06:36;;;;;;;;;;;;;;;28.94;100.00;101818.66;2611063;36;20046;-52
2022/08/24 10:09:12;;;;;;;;;;;;;;;29.12;100.00;101817.72;2611374;36;19950;-53
2022/08/24 10:11:46;;;;;;;;;;;;;;;28.94;100.00;101816.72;2604409;36;20332;-52
2022/08/24 10:14:18;;;;;;;;;;;;;;;29.38;100.00;101815.66;2611804;31;19954;-53
2022/08/24 10:16:51;;;;;;;;;;;;;;;29.40;100.00;101819.03;2610417;36;20475;-50
2022/08/24 10:19:39;;;;;;;;;;;;;;;29.74;100.00;101803.50;2614335;36;19953;-55
2022/08/24 10:22:17;;;;;;;;;;;;;;;29.36;100.00;101816.72;2605039;36;19955;-53
2022/08/24 10:24:52;;;;;;;;;;;;;;;29.55;100.00;101816.63;2611482;31;19950;-56
2022/08/24 10:27:35;;;;;;;;;;;;;;;29.68;100.00;101812.75;2611717;36;19954;-53
2022/08/24 10:30:23;;;;;;;;;;;;;;;29.41;100.00;101806.84;2608301;31;19953;-53
2022/08/24 10:32:57;;;;;;;;;;;;;;;29.75;100.00;101802.38;2610019;36;19957;-51
2022/08/24 10:35:27;;;;;;;;;;;;;;;29.56;100.00;101807.22;2608103;36;19960;-56
2022/08/24 10:40:55;;;;;;;;;;;;;;;29.33;100.00;101808.88;2606916;31;19978;-52
2022/08/24 10:43:38;;;;;;;;;;;;;;;30.05;100.00;101796.72;2608132;36;19954;-54
2022/08/24 10:46:17;;;;;;;;;;;;;;;29.95;100.00;101793.72;2609618;36;19950;-54
2022/08/24 10:49:01;;;;;;;;;;;;;;;29.97;100.00;101797.09;2610758;36;19957;-53
2022/08/24 10:51:36;;;;;;;;;;;;;;;30.03;100.00;101789.72;2609020;36;19958;-52
2022/08/24 10:54:07;;;;;;;;;;;;;;;29.84;100.00;101800.13;2608943;36;19950;-53
2022/08/24 10:56:41;;;;;;;;;;;;;;;29.58;100.00;101798.66;2609794;36;19985;-53
2022/08/24 10:59:19;;;;;;;;;;;;;;;29.60;100.00;101796.50;2607808;36;20363;-56
2022/08/24 11:02:01;;;;;;;;;;;;;;;29.57;100.00;101796.97;2611321;36;19977;-55
2022/08/24 11:04:31;;;;;;;;;;;;;;;30.19;100.00;101788.13;2609585;36;19990;-54
2022/08/24 11:07:10;;;;;;;;;;;;;;;30.36;100.00;101780.69;2609820;36;20522;-52
2022/08/24 11:09:50;;;;;;;;;;;;;;;30.40;100.00;101783.81;2607763;31;19993;-51
2022/08/24 11:12:22;;;;;;;;;;;;;;;30.58;100.00;101780.06;2609376;36;20187;-51
2022/08/24 11:14:52;;;;;;;;;;;;;;;30.32;97.66;101782.28;2605876;36;19958;-55
2022/08/24 11:17:21;;;;;;;;;;;;;;;30.33;100.00;101778.41;2612130;36;20030;-53
2022/08/24 11:19:49;;;;;;;;;;;;;;;30.85;97.57;101774.69;2607744;36;20347;-54
2022/08/24 11:22:28;;;;;;;;;;;;;;;30.47;96.63;101779.00;2600862;36;20580;-55
2022/08/24 11:25:00;;;;;;;;;;;;;;;30.56;100.00;101773.88;2602004;36;19985;-54
2022/08/24 11:27:32;;;;;;;;;;;;;;;30.33;100.00;101778.41;2603815;36;19954;-53
2022/08/24 11:30:02;;;;;;;;;;;;;;;30.08;100.00;101780.66;2598025;36;19981;-54
2022/08/24 11:32:31;;;;;;;;;;;;;;;30.58;96.82;101774.50;2611397;36;20336;-56
2022/08/24 11:35:03;;;;;;;;;;;;;;;30.79;99.10;101770.16;2610103;36;19974;-54
2022/08/24 11:37:35;;;;;;;;;;;;;;;31.32;97.00;101773.59;2611041;36;20076;-52
2022/08/24 11:40:06;;;;;;;;;;;;;;;31.51;91.63;101778.84;2611262;36;20486;-52
2022/08/24 11:42:49;;;;;;;;;;;;;;;31.88;89.83;101768.03;2610270;36;19958;-55
2022/08/24 11:45:21;;;;;;;;;;;;;;;31.87;87.45;101766.34;2611021;36;19950;-52
2022/08/24 11:47:54;;;;;;;;;;;;;;;32.07;79.38;101768.56;2609621;36;19950;-52
2022/08/24 11:50:26;;;;;;;;;;;;;;;31.97;82.65;101774.00;2604747;36;20076;-55
2022/08/24 11:53:01;;;;;;;;;;;;;;;31.52;78.91;101772.22;2608661;31;19958;-56
2022/08/24 11:55:35;;;;;;;;;;;;;;;31.76;79.17;101761.75;2610753;36;19957;-54
2022/08/24 11:58:07;;;;;;;;;;;;;;;31.52;87.00;101766.63;2608638;36;19967;-54
2022/08/24 12:00:40;;;;;;;;;;;;;;;32.12;79.54;101771.41;2603818;36;19977;-55
2022/08/24 12:03:18;;;;;;;;;;;;;;;32.24;83.18;101765.72;2607335;36;19981;-54
2022/08/24 12:05:53;;;;;;;;;;;;;;;32.20;79.20;101766.50;2606337;36;19973;-52
2022/08/24 12:08:24;;;;;;;;;;;;;;;31.89;90.80;101768.88;2606935;31;20445;-55
2022/08/24 12:10:59;;;;;;;;;;;;;;;32.25;76.21;101763.78;2604650;36;19951;-53
2022/08/24 12:13:34;;;;;;;;;;;;;;;32.21;79.71;101769.03;2605792;36;19962;-54
2022/08/24 12:16:09;;;;;;;;;;;;;;;32.11;79.61;101775.34;2608564;36;19947;-53
2022/08/24 12:18:44;;;;;;;;;;;;;;;32.25;67.08;101761.00;2605990;36;20478;-52
2022/08/24 12:21:14;;;;;;;;;;;;;;;32.53;69.34;101765.50;2605704;31;19985;-53
2022/08/24 12:23:44;;;;;;;;;;;;;;;32.63;72.34;101764.78;2603464;36;19985;-55
2022/08/24 12:26:18;;;;;;;;;;;;;;;32.93;72.98;101764.22;2605615;36;19951;-54
2022/08/24 12:28:49;;;;;;;;;;;;;;;32.80;64.53;101765.53;2600463;36;20033;-51
2022/08/24 12:31:20;;;;;;;;;;;;;;;33.09;69.13;101768.00;2608101;33;19973;-54
2022/08/24 12:33:50;;;;;;;;;;;;;;;32.77;69.71;101773.56;2605132;36;19947;-52
2022/08/24 12:36:26;;;;;;;;;;;;;;;32.69;65.45;101768.50;2600593;36;19983;-52
2022/08/24 12:39:01;;;;;;;;;;;;;;;32.66;63.26;101759.53;2607372;36;19982;-52
2022/08/24 12:41:34;;;;;;;;;;;;;;;32.80;64.98;101754.38;2608001;36;20359;-52
2022/08/24 12:44:07;;;;;;;;;;;;;;;32.67;62.64;101752.00;2604111;36;20488;-50
2022/08/24 12:46:37;;;;;;;;;;;;;;;32.79;66.26;101761.06;2611603;31;19951;-53
2022/08/24 12:49:08;;;;;;;;;;;;;;;32.91;66.95;101755.31;2610833;36;20448;-54
2022/08/24 12:51:43;;;;;;;;;;;;;;;32.68;71.14;101756.47;2610467;36;19950;-54
2022/08/24 12:54:25;;;;;;;;;;;;;;;32.52;73.45;101746.25;2610545;36;19964;-55
2022/08/24 12:57:06;;;;;;;;;;;;;;;32.98;66.84;101753.13;2611410;36;20359;-53
2022/08/24 12:59:38;;;;;;;;;;;;;;;33.21;65.34;101753.91;2611515;36;19951;-50